ΕΜΥ, Εθνική Μετεωρολογική Υπηρεσία - Δελτία Καιρού, Προγνώσεις

ΑΕΡΟΝΑΥΤΙΛΙΑ

GREEK AIRPORTS CODES

LGLE 010530Z AUTO 01020G30KT //// -RA ////// 08/M02 Q1014 RE// RMK 0.0MM=

EUROPEAN AIRPORTS CODES

LFPO 010530Z AUTO 27006KT 9999 SCT036 06/02 Q1028 NOSIG=